sensor_id;sensor_type;location;lat;lon;timestamp;temperature;humidity
14850;DHT22;7517;48.400;11.770;2022-12-16T00:01:36;6.00;84.10
14850;DHT22;7517;48.400;11.770;2022-12-16T00:04:04;6.00;84.10
14850;DHT22;7517;48.400;11.770;2022-12-16T00:06:32;6.00;84.10
14850;DHT22;7517;48.400;11.770;2022-12-16T00:09:00;6.00;84.10
14850;DHT22;7517;48.400;11.770;2022-12-16T00:11:28;6.00;84.10
14850;DHT22;7517;48.400;11.770;2022-12-16T00:13:58;6.00;84.10
14850;DHT22;7517;48.400;11.770;2022-12-16T00:16:26;6.10;84.10
14850;DHT22;7517;48.400;11.770;2022-12-16T00:18:53;6.10;84.20
14850;DHT22;7517;48.400;11.770;2022-12-16T00:21:20;6.10;84.20
14850;DHT22;7517;48.400;11.770;2022-12-16T00:23:53;6.10;84.20
14850;DHT22;7517;48.400;11.770;2022-12-16T00:26:21;6.10;84.20
14850;DHT22;7517;48.400;11.770;2022-12-16T00:28:48;6.10;84.10
14850;DHT22;7517;48.400;11.770;2022-12-16T00:31:18;6.10;84.20
14850;DHT22;7517;48.400;11.770;2022-12-16T00:33:45;6.10;84.20
14850;DHT22;7517;48.400;11.770;2022-12-16T00:36:12;6.10;84.30
14850;DHT22;7517;48.400;11.770;2022-12-16T00:38:40;6.10;84.20
14850;DHT22;7517;48.400;11.770;2022-12-16T00:41:07;6.20;84.30
14850;DHT22;7517;48.400;11.770;2022-12-16T00:43:34;6.20;84.10
14850;DHT22;7517;48.400;11.770;2022-12-16T00:46:02;6.20;84.10
14850;DHT22;7517;48.400;11.770;2022-12-16T00:48:33;6.20;84.00
14850;DHT22;7517;48.400;11.770;2022-12-16T00:51:01;6.20;84.00
14850;DHT22;7517;48.400;11.770;2022-12-16T00:53:28;6.20;84.00
14850;DHT22;7517;48.400;11.770;2022-12-16T00:56:01;6.20;84.00
14850;DHT22;7517;48.400;11.770;2022-12-16T00:58:33;6.20;83.90
14850;DHT22;7517;48.400;11.770;2022-12-16T01:01:00;6.10;83.80
14850;DHT22;7517;48.400;11.770;2022-12-16T01:03:28;6.10;83.80
14850;DHT22;7517;48.400;11.770;2022-12-16T01:05:57;6.10;83.60
14850;DHT22;7517;48.400;11.770;2022-12-16T01:08:25;6.10;83.50
14850;DHT22;7517;48.400;11.770;2022-12-16T01:10:54;6.10;83.40
14850;DHT22;7517;48.400;11.770;2022-12-16T01:13:23;6.00;83.40
14850;DHT22;7517;48.400;11.770;2022-12-16T01:15:51;6.00;83.50
14850;DHT22;7517;48.400;11.770;2022-12-16T01:18:20;6.00;83.50
14850;DHT22;7517;48.400;11.770;2022-12-16T01:20:47;6.00;83.50
14850;DHT22;7517;48.400;11.770;2022-12-16T01:23:16;5.90;83.50
14850;DHT22;7517;48.400;11.770;2022-12-16T01:25:44;5.90;83.40
14850;DHT22;7517;48.400;11.770;2022-12-16T01:28:11;5.90;83.40
14850;DHT22;7517;48.400;11.770;2022-12-16T01:30:38;5.90;83.40
14850;DHT22;7517;48.400;11.770;2022-12-16T01:33:06;5.90;83.50
14850;DHT22;7517;48.400;11.770;2022-12-16T01:35:33;5.90;83.70
14850;DHT22;7517;48.400;11.770;2022-12-16T01:38:00;5.80;83.60
14850;DHT22;7517;48.400;11.770;2022-12-16T01:40:29;5.80;83.60
14850;DHT22;7517;48.400;11.770;2022-12-16T01:42:57;5.80;83.60
14850;DHT22;7517;48.400;11.770;2022-12-16T01:45:30;5.80;83.60
14850;DHT22;7517;48.400;11.770;2022-12-16T01:48:02;5.80;83.50
14850;DHT22;7517;48.400;11.770;2022-12-16T01:50:37;5.80;84.20
14850;DHT22;7517;48.400;11.770;2022-12-16T01:53:05;5.80;83.50
14850;DHT22;7517;48.400;11.770;2022-12-16T01:55:37;5.80;84.30
14850;DHT22;7517;48.400;11.770;2022-12-16T01:58:11;5.80;83.40
14850;DHT22;7517;48.400;11.770;2022-12-16T02:00:41;5.80;83.20
14850;DHT22;7517;48.400;11.770;2022-12-16T02:03:09;5.70;83.00
14850;DHT22;7517;48.400;11.770;2022-12-16T02:05:39;5.70;82.90
14850;DHT22;7517;48.400;11.770;2022-12-16T02:08:11;5.70;82.90
14850;DHT22;7517;48.400;11.770;2022-12-16T02:11:01;5.70;82.70
14850;DHT22;7517;48.400;11.770;2022-12-16T02:13:46;5.60;82.40
14850;DHT22;7517;48.400;11.770;2022-12-16T02:16:26;5.60;82.40
14850;DHT22;7517;48.400;11.770;2022-12-16T02:19:11;5.50;82.40
14850;DHT22;7517;48.400;11.770;2022-12-16T02:22:07;5.50;82.60
14850;DHT22;7517;48.400;11.770;2022-12-16T02:25:01;5.50;82.70
14850;DHT22;7517;48.400;11.770;2022-12-16T02:28:05;5.50;82.70
14850;DHT22;7517;48.400;11.770;2022-12-16T02:31:04;5.40;82.60
14850;DHT22;7517;48.400;11.770;2022-12-16T02:34:07;5.40;82.70
14850;DHT22;7517;48.400;11.770;2022-12-16T02:36:55;5.40;82.80
14850;DHT22;7517;48.400;11.770;2022-12-16T02:39:36;5.40;82.90
14850;DHT22;7517;48.400;11.770;2022-12-16T02:42:12;5.40;83.00
14850;DHT22;7517;48.400;11.770;2022-12-16T02:44:53;5.30;82.90
14850;DHT22;7517;48.400;11.770;2022-12-16T02:47:28;5.30;82.80
14850;DHT22;7517;48.400;11.770;2022-12-16T02:49:56;5.30;83.00
14850;DHT22;7517;48.400;11.770;2022-12-16T02:52:26;5.30;83.00
14850;DHT22;7517;48.400;11.770;2022-12-16T02:54:57;5.30;83.10
14850;DHT22;7517;48.400;11.770;2022-12-16T02:57:55;5.30;83.20
14850;DHT22;7517;48.400;11.770;2022-12-16T03:00:34;5.30;83.10
14850;DHT22;7517;48.400;11.770;2022-12-16T03:03:12;5.30;83.10
14850;DHT22;7517;48.400;11.770;2022-12-16T03:05:47;5.30;83.20
14850;DHT22;7517;48.400;11.770;2022-12-16T03:08:21;5.30;83.20
14850;DHT22;7517;48.400;11.770;2022-12-16T03:10:56;5.30;83.10
14850;DHT22;7517;48.400;11.770;2022-12-16T03:13:30;5.30;83.00
14850;DHT22;7517;48.400;11.770;2022-12-16T03:16:03;5.30;82.70
14850;DHT22;7517;48.400;11.770;2022-12-16T03:18:34;5.20;82.50
14850;DHT22;7517;48.400;11.770;2022-12-16T03:21:06;5.20;82.70
14850;DHT22;7517;48.400;11.770;2022-12-16T03:23:38;5.20;82.80
14850;DHT22;7517;48.400;11.770;2022-12-16T03:26:14;5.20;82.70
14850;DHT22;7517;48.400;11.770;2022-12-16T03:28:51;5.20;82.70
14850;DHT22;7517;48.400;11.770;2022-12-16T03:31:30;5.20;82.50
14850;DHT22;7517;48.400;11.770;2022-12-16T03:34:10;5.20;82.30
14850;DHT22;7517;48.400;11.770;2022-12-16T03:36:44;5.20;82.30
14850;DHT22;7517;48.400;11.770;2022-12-16T03:39:18;5.20;82.40
14850;DHT22;7517;48.400;11.770;2022-12-16T03:41:50;5.10;82.40
14850;DHT22;7517;48.400;11.770;2022-12-16T03:44:21;5.10;82.30
14850;DHT22;7517;48.400;11.770;2022-12-16T03:46:49;5.10;82.20
14850;DHT22;7517;48.400;11.770;2022-12-16T03:49:20;5.10;82.10
14850;DHT22;7517;48.400;11.770;2022-12-16T03:51:48;5.10;82.00
14850;DHT22;7517;48.400;11.770;2022-12-16T03:54:15;5.10;82.10
14850;DHT22;7517;48.400;11.770;2022-12-16T03:56:43;5.10;82.20
14850;DHT22;7517;48.400;11.770;2022-12-16T03:59:11;5.10;82.30
14850;DHT22;7517;48.400;11.770;2022-12-16T04:01:38;5.10;82.40
14850;DHT22;7517;48.400;11.770;2022-12-16T04:04:06;5.10;82.30
14850;DHT22;7517;48.400;11.770;2022-12-16T04:06:35;5.10;82.30
14850;DHT22;7517;48.400;11.770;2022-12-16T04:09:02;5.10;82.30
14850;DHT22;7517;48.400;11.770;2022-12-16T04:11:29;5.10;82.20
14850;DHT22;7517;48.400;11.770;2022-12-16T04:14:14;5.00;82.00
14850;DHT22;7517;48.400;11.770;2022-12-16T04:17:00;5.00;82.20
14850;DHT22;7517;48.400;11.770;2022-12-16T04:19:49;5.00;82.40
14850;DHT22;7517;48.400;11.770;2022-12-16T04:22:38;5.10;82.30
14850;DHT22;7517;48.400;11.770;2022-12-16T04:25:27;5.10;82.20
14850;DHT22;7517;48.400;11.770;2022-12-16T04:27:56;5.00;81.80
14850;DHT22;7517;48.400;11.770;2022-12-16T04:30:24;5.00;81.70
14850;DHT22;7517;48.400;11.770;2022-12-16T04:32:55;5.00;81.90
14850;DHT22;7517;48.400;11.770;2022-12-16T04:35:43;5.00;82.00
14850;DHT22;7517;48.400;11.770;2022-12-16T04:38:30;5.00;82.00
14850;DHT22;7517;48.400;11.770;2022-12-16T04:41:15;5.00;82.10
14850;DHT22;7517;48.400;11.770;2022-12-16T04:44:00;5.00;82.10
14850;DHT22;7517;48.400;11.770;2022-12-16T04:46:45;5.00;82.30
14850;DHT22;7517;48.400;11.770;2022-12-16T04:49:33;5.00;82.30
14850;DHT22;7517;48.400;11.770;2022-12-16T04:52:18;5.00;82.30
14850;DHT22;7517;48.400;11.770;2022-12-16T04:55:07;5.00;82.10
14850;DHT22;7517;48.400;11.770;2022-12-16T04:57:53;5.00;82.10
14850;DHT22;7517;48.400;11.770;2022-12-16T05:00:40;5.00;82.20
14850;DHT22;7517;48.400;11.770;2022-12-16T05:03:26;5.00;82.20
14850;DHT22;7517;48.400;11.770;2022-12-16T05:06:12;5.00;82.30
14850;DHT22;7517;48.400;11.770;2022-12-16T05:08:57;5.00;82.30
14850;DHT22;7517;48.400;11.770;2022-12-16T05:11:44;5.00;82.30
14850;DHT22;7517;48.400;11.770;2022-12-16T05:14:29;5.00;82.10
14850;DHT22;7517;48.400;11.770;2022-12-16T05:17:13;5.00;82.10
14850;DHT22;7517;48.400;11.770;2022-12-16T05:19:58;5.00;82.20
14850;DHT22;7517;48.400;11.770;2022-12-16T05:22:43;5.00;82.10
14850;DHT22;7517;48.400;11.770;2022-12-16T05:25:27;5.00;82.00
14850;DHT22;7517;48.400;11.770;2022-12-16T05:28:13;5.00;82.00
14850;DHT22;7517;48.400;11.770;2022-12-16T05:30:59;5.00;82.00
14850;DHT22;7517;48.400;11.770;2022-12-16T05:33:44;5.00;82.10
14850;DHT22;7517;48.400;11.770;2022-12-16T05:36:28;5.00;82.00
14850;DHT22;7517;48.400;11.770;2022-12-16T05:39:13;5.00;82.10
14850;DHT22;7517;48.400;11.770;2022-12-16T05:41:57;5.00;82.20
14850;DHT22;7517;48.400;11.770;2022-12-16T05:44:43;5.00;82.10
14850;DHT22;7517;48.400;11.770;2022-12-16T05:47:28;5.00;82.10
14850;DHT22;7517;48.400;11.770;2022-12-16T05:50:21;5.10;82.20
14850;DHT22;7517;48.400;11.770;2022-12-16T05:53:06;5.10;82.20
14850;DHT22;7517;48.400;11.770;2022-12-16T05:55:51;5.10;82.10
14850;DHT22;7517;48.400;11.770;2022-12-16T05:58:37;5.10;82.20
14850;DHT22;7517;48.400;11.770;2022-12-16T06:01:23;5.10;82.20
14850;DHT22;7517;48.400;11.770;2022-12-16T06:04:08;5.10;82.20
14850;DHT22;7517;48.400;11.770;2022-12-16T06:06:53;5.10;82.00
14850;DHT22;7517;48.400;11.770;2022-12-16T06:09:38;5.10;82.00
14850;DHT22;7517;48.400;11.770;2022-12-16T06:12:23;5.10;82.00
14850;DHT22;7517;48.400;11.770;2022-12-16T06:15:09;5.10;82.10
14850;DHT22;7517;48.400;11.770;2022-12-16T06:17:55;5.10;82.10
14850;DHT22;7517;48.400;11.770;2022-12-16T06:20:43;5.10;82.00
14850;DHT22;7517;48.400;11.770;2022-12-16T06:23:27;5.10;81.90
14850;DHT22;7517;48.400;11.770;2022-12-16T06:26:12;5.10;81.90
14850;DHT22;7517;48.400;11.770;2022-12-16T06:28:57;5.10;82.00
14850;DHT22;7517;48.400;11.770;2022-12-16T06:31:42;5.10;82.00
14850;DHT22;7517;48.400;11.770;2022-12-16T06:34:28;5.10;82.00
14850;DHT22;7517;48.400;11.770;2022-12-16T06:37:13;5.20;82.00
14850;DHT22;7517;48.400;11.770;2022-12-16T06:39:58;5.20;82.00
14850;DHT22;7517;48.400;11.770;2022-12-16T06:42:43;5.20;81.90
14850;DHT22;7517;48.400;11.770;2022-12-16T06:45:28;5.20;81.90
14850;DHT22;7517;48.400;11.770;2022-12-16T06:48:13;5.20;81.70
14850;DHT22;7517;48.400;11.770;2022-12-16T06:50:59;5.20;81.80
14850;DHT22;7517;48.400;11.770;2022-12-16T06:53:44;5.20;81.70
14850;DHT22;7517;48.400;11.770;2022-12-16T06:56:29;5.20;81.60
14850;DHT22;7517;48.400;11.770;2022-12-16T06:59:13;5.20;81.60
14850;DHT22;7517;48.400;11.770;2022-12-16T07:02:08;5.20;81.60
14850;DHT22;7517;48.400;11.770;2022-12-16T07:04:56;5.20;81.30
14850;DHT22;7517;48.400;11.770;2022-12-16T07:07:47;5.30;81.30
14850;DHT22;7517;48.400;11.770;2022-12-16T07:10:32;5.30;81.20
14850;DHT22;7517;48.400;11.770;2022-12-16T07:13:17;5.20;81.40
14850;DHT22;7517;48.400;11.770;2022-12-16T07:16:02;5.30;81.50
14850;DHT22;7517;48.400;11.770;2022-12-16T07:18:47;5.20;81.40
14850;DHT22;7517;48.400;11.770;2022-12-16T07:21:34;5.20;81.40
14850;DHT22;7517;48.400;11.770;2022-12-16T07:24:20;5.30;81.40
14850;DHT22;7517;48.400;11.770;2022-12-16T07:27:05;5.30;81.10
14850;DHT22;7517;48.400;11.770;2022-12-16T07:29:50;5.20;81.10
14850;DHT22;7517;48.400;11.770;2022-12-16T07:32:35;5.20;81.10
14850;DHT22;7517;48.400;11.770;2022-12-16T07:35:19;5.20;81.30
14850;DHT22;7517;48.400;11.770;2022-12-16T07:38:04;5.20;81.10
14850;DHT22;7517;48.400;11.770;2022-12-16T07:40:50;5.20;81.10
14850;DHT22;7517;48.400;11.770;2022-12-16T07:43:35;5.20;81.20
14850;DHT22;7517;48.400;11.770;2022-12-16T07:46:20;5.20;81.20
14850;DHT22;7517;48.400;11.770;2022-12-16T07:49:05;5.20;81.10
14850;DHT22;7517;48.400;11.770;2022-12-16T07:51:50;5.20;81.10
14850;DHT22;7517;48.400;11.770;2022-12-16T07:54:35;5.30;81.30
14850;DHT22;7517;48.400;11.770;2022-12-16T07:57:21;5.20;81.20
14850;DHT22;7517;48.400;11.770;2022-12-16T08:00:07;5.20;81.00
14850;DHT22;7517;48.400;11.770;2022-12-16T08:02:53;5.20;81.10
14850;DHT22;7517;48.400;11.770;2022-12-16T08:05:37;5.20;81.10
14850;DHT22;7517;48.400;11.770;2022-12-16T08:08:22;5.20;81.20
14850;DHT22;7517;48.400;11.770;2022-12-16T08:11:07;5.20;81.30
14850;DHT22;7517;48.400;11.770;2022-12-16T08:13:54;5.20;81.30
14850;DHT22;7517;48.400;11.770;2022-12-16T08:16:38;5.20;81.20
14850;DHT22;7517;48.400;11.770;2022-12-16T08:19:38;5.20;81.10
14850;DHT22;7517;48.400;11.770;2022-12-16T08:22:22;5.30;81.20
14850;DHT22;7517;48.400;11.770;2022-12-16T08:25:08;5.30;81.10
14850;DHT22;7517;48.400;11.770;2022-12-16T08:27:53;5.30;81.30
14850;DHT22;7517;48.400;11.770;2022-12-16T08:30:40;5.30;81.30
14850;DHT22;7517;48.400;11.770;2022-12-16T08:33:25;5.30;81.30
14850;DHT22;7517;48.400;11.770;2022-12-16T08:36:10;5.30;81.40
14850;DHT22;7517;48.400;11.770;2022-12-16T08:38:54;5.30;81.30
14850;DHT22;7517;48.400;11.770;2022-12-16T08:41:39;5.30;81.20
14850;DHT22;7517;48.400;11.770;2022-12-16T08:44:24;5.40;81.30
14850;DHT22;7517;48.400;11.770;2022-12-16T08:47:10;5.40;81.50
14850;DHT22;7517;48.400;11.770;2022-12-16T08:49:55;5.40;81.40
14850;DHT22;7517;48.400;11.770;2022-12-16T08:52:41;5.40;81.40
14850;DHT22;7517;48.400;11.770;2022-12-16T08:55:26;5.40;81.20
14850;DHT22;7517;48.400;11.770;2022-12-16T08:58:11;5.40;81.10
14850;DHT22;7517;48.400;11.770;2022-12-16T09:00:55;5.40;81.10
14850;DHT22;7517;48.400;11.770;2022-12-16T09:03:41;5.40;81.00
14850;DHT22;7517;48.400;11.770;2022-12-16T09:06:26;5.40;81.10
14850;DHT22;7517;48.400;11.770;2022-12-16T09:09:11;5.40;81.10
14850;DHT22;7517;48.400;11.770;2022-12-16T09:11:56;5.40;81.10
14850;DHT22;7517;48.400;11.770;2022-12-16T09:14:44;5.40;81.30
14850;DHT22;7517;48.400;11.770;2022-12-16T09:17:29;5.40;81.10
14850;DHT22;7517;48.400;11.770;2022-12-16T09:20:15;5.40;81.00
14850;DHT22;7517;48.400;11.770;2022-12-16T09:23:01;5.40;81.10
14850;DHT22;7517;48.400;11.770;2022-12-16T09:25:46;5.40;81.10
14850;DHT22;7517;48.400;11.770;2022-12-16T09:28:32;5.40;81.10
14850;DHT22;7517;48.400;11.770;2022-12-16T09:31:17;5.40;81.00
14850;DHT22;7517;48.400;11.770;2022-12-16T09:34:02;5.40;80.90
14850;DHT22;7517;48.400;11.770;2022-12-16T09:36:49;5.40;80.90
14850;DHT22;7517;48.400;11.770;2022-12-16T09:39:35;5.40;81.00
14850;DHT22;7517;48.400;11.770;2022-12-16T09:42:24;5.40;80.70
14850;DHT22;7517;48.400;11.770;2022-12-16T09:45:27;5.40;80.60
14850;DHT22;7517;48.400;11.770;2022-12-16T09:48:28;5.40;80.50
14850;DHT22;7517;48.400;11.770;2022-12-16T09:51:22;5.40;80.80
14850;DHT22;7517;48.400;11.770;2022-12-16T09:54:12;5.40;81.70
14850;DHT22;7517;48.400;11.770;2022-12-16T09:57:01;5.40;81.00
14850;DHT22;7517;48.400;11.770;2022-12-16T09:59:52;5.40;81.00
14850;DHT22;7517;48.400;11.770;2022-12-16T10:02:41;5.40;81.00
14850;DHT22;7517;48.400;11.770;2022-12-16T10:05:33;5.40;81.10
14850;DHT22;7517;48.400;11.770;2022-12-16T10:08:31;5.40;81.00
14850;DHT22;7517;48.400;11.770;2022-12-16T10:11:27;5.40;80.60
14850;DHT22;7517;48.400;11.770;2022-12-16T10:14:25;5.40;80.60
14850;DHT22;7517;48.400;11.770;2022-12-16T10:17:22;5.40;80.80
14850;DHT22;7517;48.400;11.770;2022-12-16T10:20:15;5.40;80.80
14850;DHT22;7517;48.400;11.770;2022-12-16T10:23:14;5.40;81.10
14850;DHT22;7517;48.400;11.770;2022-12-16T10:26:09;5.40;81.30
14850;DHT22;7517;48.400;11.770;2022-12-16T10:29:05;5.40;81.20
14850;DHT22;7517;48.400;11.770;2022-12-16T10:31:56;5.50;80.90
14850;DHT22;7517;48.400;11.770;2022-12-16T10:34:38;5.40;80.70
14850;DHT22;7517;48.400;11.770;2022-12-16T10:37:30;5.40;80.60
14850;DHT22;7517;48.400;11.770;2022-12-16T10:40:22;5.40;80.50
14850;DHT22;7517;48.400;11.770;2022-12-16T10:43:14;5.40;80.50
14850;DHT22;7517;48.400;11.770;2022-12-16T10:46:06;5.40;80.50
14850;DHT22;7517;48.400;11.770;2022-12-16T10:48:58;5.40;80.70
14850;DHT22;7517;48.400;11.770;2022-12-16T10:51:43;5.40;80.70
14850;DHT22;7517;48.400;11.770;2022-12-16T10:54:32;5.40;80.70
14850;DHT22;7517;48.400;11.770;2022-12-16T10:57:29;5.40;80.60
14850;DHT22;7517;48.400;11.770;2022-12-16T11:00:39;5.40;80.60
14850;DHT22;7517;48.400;11.770;2022-12-16T11:03:29;5.40;80.40
14850;DHT22;7517;48.400;11.770;2022-12-16T11:06:18;5.40;80.70
14850;DHT22;7517;48.400;11.770;2022-12-16T11:09:17;5.40;80.80
14850;DHT22;7517;48.400;11.770;2022-12-16T11:12:20;5.40;80.50
14850;DHT22;7517;48.400;11.770;2022-12-16T11:15:19;5.40;80.40
14850;DHT22;7517;48.400;11.770;2022-12-16T11:18:10;5.40;80.50
14850;DHT22;7517;48.400;11.770;2022-12-16T11:21:11;5.40;80.60
14850;DHT22;7517;48.400;11.770;2022-12-16T11:24:11;5.40;80.60
14850;DHT22;7517;48.400;11.770;2022-12-16T11:27:00;5.40;80.70
14850;DHT22;7517;48.400;11.770;2022-12-16T11:29:51;5.40;80.90
14850;DHT22;7517;48.400;11.770;2022-12-16T11:32:39;5.40;80.90
14850;DHT22;7517;48.400;11.770;2022-12-16T11:35:30;5.40;80.90
14850;DHT22;7517;48.400;11.770;2022-12-16T11:38:39;5.40;80.90
14850;DHT22;7517;48.400;11.770;2022-12-16T11:41:29;5.50;80.80
14850;DHT22;7517;48.400;11.770;2022-12-16T11:44:19;5.50;81.00
14850;DHT22;7517;48.400;11.770;2022-12-16T11:47:15;5.50;81.10
14850;DHT22;7517;48.400;11.770;2022-12-16T11:50:08;5.50;81.10
14850;DHT22;7517;48.400;11.770;2022-12-16T11:52:59;5.50;81.00
14850;DHT22;7517;48.400;11.770;2022-12-16T11:55:49;5.50;80.90
14850;DHT22;7517;48.400;11.770;2022-12-16T11:58:43;5.50;81.00
14850;DHT22;7517;48.400;11.770;2022-12-16T12:01:34;5.60;81.00
14850;DHT22;7517;48.400;11.770;2022-12-16T12:04:24;5.60;81.00
14850;DHT22;7517;48.400;11.770;2022-12-16T12:07:25;5.60;80.90
14850;DHT22;7517;48.400;11.770;2022-12-16T12:10:55;5.60;80.40
14850;DHT22;7517;48.400;11.770;2022-12-16T12:13:53;5.70;80.60
14850;DHT22;7517;48.400;11.770;2022-12-16T12:17:01;5.70;80.90
14850;DHT22;7517;48.400;11.770;2022-12-16T12:20:04;5.70;80.60
14850;DHT22;7517;48.400;11.770;2022-12-16T12:23:22;5.70;80.50
14850;DHT22;7517;48.400;11.770;2022-12-16T12:26:21;5.70;80.70
14850;DHT22;7517;48.400;11.770;2022-12-16T12:29:17;5.80;81.50
14850;DHT22;7517;48.400;11.770;2022-12-16T12:32:16;5.70;80.50
14850;DHT22;7517;48.400;11.770;2022-12-16T12:35:17;5.80;80.20
14850;DHT22;7517;48.400;11.770;2022-12-16T12:38:17;5.80;80.10
14850;DHT22;7517;48.400;11.770;2022-12-16T12:41:14;5.80;80.20
14850;DHT22;7517;48.400;11.770;2022-12-16T12:44:06;5.80;80.10
14850;DHT22;7517;48.400;11.770;2022-12-16T12:46:59;5.70;80.10
14850;DHT22;7517;48.400;11.770;2022-12-16T12:49:53;5.70;80.30
14850;DHT22;7517;48.400;11.770;2022-12-16T12:53:04;5.70;80.10
14850;DHT22;7517;48.400;11.770;2022-12-16T12:56:10;5.70;79.80
14850;DHT22;7517;48.400;11.770;2022-12-16T12:59:04;5.70;80.00
14850;DHT22;7517;48.400;11.770;2022-12-16T13:01:58;5.70;80.10
14850;DHT22;7517;48.400;11.770;2022-12-16T13:04:47;5.60;80.20
14850;DHT22;7517;48.400;11.770;2022-12-16T13:07:33;5.60;80.20
14850;DHT22;7517;48.400;11.770;2022-12-16T13:10:32;5.60;80.50
14850;DHT22;7517;48.400;11.770;2022-12-16T13:13:30;5.60;80.20
14850;DHT22;7517;48.400;11.770;2022-12-16T13:19:55;5.70;80.20
14850;DHT22;7517;48.400;11.770;2022-12-16T13:22:43;5.70;80.20
14850;DHT22;7517;48.400;11.770;2022-12-16T13:25:41;5.70;80.10
14850;DHT22;7517;48.400;11.770;2022-12-16T13:28:34;5.70;80.00
14850;DHT22;7517;48.400;11.770;2022-12-16T13:31:21;5.70;80.10
14850;DHT22;7517;48.400;11.770;2022-12-16T13:34:20;5.60;79.90
14850;DHT22;7517;48.400;11.770;2022-12-16T13:37:20;5.60;79.80
14850;DHT22;7517;48.400;11.770;2022-12-16T13:40:16;5.60;79.80
14850;DHT22;7517;48.400;11.770;2022-12-16T13:46:44;5.60;79.60
14850;DHT22;7517;48.400;11.770;2022-12-16T13:49:45;5.50;80.10
14850;DHT22;7517;48.400;11.770;2022-12-16T13:52:42;5.50;80.00
14850;DHT22;7517;48.400;11.770;2022-12-16T13:55:34;5.50;80.10
14850;DHT22;7517;48.400;11.770;2022-12-16T13:58:31;5.50;80.40
14850;DHT22;7517;48.400;11.770;2022-12-16T14:01:23;5.50;80.60
14850;DHT22;7517;48.400;11.770;2022-12-16T14:04:25;5.50;80.80
14850;DHT22;7517;48.400;11.770;2022-12-16T14:07:13;5.50;80.50
14850;DHT22;7517;48.400;11.770;2022-12-16T14:10:03;5.50;80.60
14850;DHT22;7517;48.400;11.770;2022-12-16T14:12:57;5.50;80.60
14850;DHT22;7517;48.400;11.770;2022-12-16T14:15:57;5.50;80.40
14850;DHT22;7517;48.400;11.770;2022-12-16T14:19:02;5.50;80.50
14850;DHT22;7517;48.400;11.770;2022-12-16T14:22:15;5.50;80.60
14850;DHT22;7517;48.400;11.770;2022-12-16T14:25:15;5.50;80.70
14850;DHT22;7517;48.400;11.770;2022-12-16T14:28:15;5.50;80.70
14850;DHT22;7517;48.400;11.770;2022-12-16T14:31:14;5.50;80.60
14850;DHT22;7517;48.400;11.770;2022-12-16T14:34:01;5.50;80.60
14850;DHT22;7517;48.400;11.770;2022-12-16T14:36:46;5.50;80.70
14850;DHT22;7517;48.400;11.770;2022-12-16T14:39:37;5.50;80.50
14850;DHT22;7517;48.400;11.770;2022-12-16T14:42:26;5.50;80.40
14850;DHT22;7517;48.400;11.770;2022-12-16T14:45:27;5.50;80.50
14850;DHT22;7517;48.400;11.770;2022-12-16T14:48:25;5.40;80.40
14850;DHT22;7517;48.400;11.770;2022-12-16T14:51:24;5.40;80.50
14850;DHT22;7517;48.400;11.770;2022-12-16T14:54:23;5.40;80.80
14850;DHT22;7517;48.400;11.770;2022-12-16T14:57:13;5.40;80.60
14850;DHT22;7517;48.400;11.770;2022-12-16T15:00:09;5.40;80.60
14850;DHT22;7517;48.400;11.770;2022-12-16T15:02:59;5.40;80.50
14850;DHT22;7517;48.400;11.770;2022-12-16T15:05:46;5.40;80.60
14850;DHT22;7517;48.400;11.770;2022-12-16T15:08:35;5.40;80.60
14850;DHT22;7517;48.400;11.770;2022-12-16T15:11:30;5.40;80.60
14850;DHT22;7517;48.400;11.770;2022-12-16T15:14:20;5.40;80.70
14850;DHT22;7517;48.400;11.770;2022-12-16T15:17:18;5.30;80.80
14850;DHT22;7517;48.400;11.770;2022-12-16T15:20:05;5.40;80.60
14850;DHT22;7517;48.400;11.770;2022-12-16T15:22:58;5.30;80.80
14850;DHT22;7517;48.400;11.770;2022-12-16T15:25:48;5.30;80.70
14850;DHT22;7517;48.400;11.770;2022-12-16T15:28:38;5.30;80.60
14850;DHT22;7517;48.400;11.770;2022-12-16T15:31:26;5.30;80.80
14850;DHT22;7517;48.400;11.770;2022-12-16T15:34:28;5.30;80.90
14850;DHT22;7517;48.400;11.770;2022-12-16T15:37:20;5.30;80.60
14850;DHT22;7517;48.400;11.770;2022-12-16T15:40:23;5.30;80.70
14850;DHT22;7517;48.400;11.770;2022-12-16T15:43:31;5.30;80.60
14850;DHT22;7517;48.400;11.770;2022-12-16T15:46:18;5.30;80.40
14850;DHT22;7517;48.400;11.770;2022-12-16T15:49:05;5.30;80.70
14850;DHT22;7517;48.400;11.770;2022-12-16T15:52:01;5.30;80.80
14850;DHT22;7517;48.400;11.770;2022-12-16T15:54:51;5.30;80.90
14850;DHT22;7517;48.400;11.770;2022-12-16T15:57:38;5.30;80.80
14850;DHT22;7517;48.400;11.770;2022-12-16T16:00:24;5.30;80.80
14850;DHT22;7517;48.400;11.770;2022-12-16T16:03:22;5.30;80.90
14850;DHT22;7517;48.400;11.770;2022-12-16T16:06:17;5.30;80.50
14850;DHT22;7517;48.400;11.770;2022-12-16T16:09:13;5.20;80.50
14850;DHT22;7517;48.400;11.770;2022-12-16T16:11:58;5.20;80.60
14850;DHT22;7517;48.400;11.770;2022-12-16T16:14:43;5.20;80.80
14850;DHT22;7517;48.400;11.770;2022-12-16T16:17:27;5.20;80.70
14850;DHT22;7517;48.400;11.770;2022-12-16T16:20:13;5.20;80.80
14850;DHT22;7517;48.400;11.770;2022-12-16T16:23:00;5.20;81.00
14850;DHT22;7517;48.400;11.770;2022-12-16T16:25:47;5.20;81.10
14850;DHT22;7517;48.400;11.770;2022-12-16T16:28:33;5.10;81.00
14850;DHT22;7517;48.400;11.770;2022-12-16T16:31:18;5.10;81.00
14850;DHT22;7517;48.400;11.770;2022-12-16T16:34:03;5.10;81.00
14850;DHT22;7517;48.400;11.770;2022-12-16T16:36:51;5.10;81.10
14850;DHT22;7517;48.400;11.770;2022-12-16T16:39:37;5.10;81.10
14850;DHT22;7517;48.400;11.770;2022-12-16T16:42:32;5.10;81.10
14850;DHT22;7517;48.400;11.770;2022-12-16T16:45:16;5.10;81.10
14850;DHT22;7517;48.400;11.770;2022-12-16T16:48:08;5.10;81.10
14850;DHT22;7517;48.400;11.770;2022-12-16T16:50:57;5.10;80.90
14850;DHT22;7517;48.400;11.770;2022-12-16T16:53:45;5.10;81.10
14850;DHT22;7517;48.400;11.770;2022-12-16T16:56:33;5.10;81.20
14850;DHT22;7517;48.400;11.770;2022-12-16T16:59:22;5.10;81.20
14850;DHT22;7517;48.400;11.770;2022-12-16T17:02:15;5.10;81.20
14850;DHT22;7517;48.400;11.770;2022-12-16T17:05:02;5.10;81.10
14850;DHT22;7517;48.400;11.770;2022-12-16T17:07:46;5.10;81.30
14850;DHT22;7517;48.400;11.770;2022-12-16T17:10:40;5.10;81.40
14850;DHT22;7517;48.400;11.770;2022-12-16T17:13:24;5.10;81.40
14850;DHT22;7517;48.400;11.770;2022-12-16T17:16:11;5.10;81.30
14850;DHT22;7517;48.400;11.770;2022-12-16T17:18:57;5.10;81.40
14850;DHT22;7517;48.400;11.770;2022-12-16T17:21:42;5.10;81.50
14850;DHT22;7517;48.400;11.770;2022-12-16T17:24:26;5.10;81.70
14850;DHT22;7517;48.400;11.770;2022-12-16T17:27:15;5.10;81.50
14850;DHT22;7517;48.400;11.770;2022-12-16T17:30:03;5.10;81.40
14850;DHT22;7517;48.400;11.770;2022-12-16T17:32:51;5.10;81.20
14850;DHT22;7517;48.400;11.770;2022-12-16T17:35:36;5.10;81.40
14850;DHT22;7517;48.400;11.770;2022-12-16T17:38:21;5.10;81.60
14850;DHT22;7517;48.400;11.770;2022-12-16T17:41:07;5.10;81.60
14850;DHT22;7517;48.400;11.770;2022-12-16T17:43:52;5.10;81.70
14850;DHT22;7517;48.400;11.770;2022-12-16T17:46:37;5.10;81.70
14850;DHT22;7517;48.400;11.770;2022-12-16T17:49:23;5.10;81.70